Time;durP1;ratioP1;P1;durP2;ratioP2;P2;SDS_P1;SDS_P2;PMS_P1;PMS_P2;Temp;Humidity;BMP_temperature;BMP_pressure;BME280_temperature;BME280_humidity;BME280_pressure;Samples;Min_cycle;Max_cycle;Signal;HPM_P1;HPM_P2
2022/11/12 00:01:15;;;;;;;26.63;18.08;;;7.50;99.90;;;;;;6135292;23;20193;-85
2022/11/12 00:04:04;;;;;;;;;;;;;;;;;;;;;
2022/11/12 00:06:38;;;;;;;27.20;18.27;;;7.50;99.90;;;;;;6161309;23;20181;-83
2022/11/12 00:09:05;;;;;;;29.92;20.27;;;7.50;99.90;;;;;;6137053;23;20169;-82
2022/11/12 00:11:35;;;;;;;28.35;19.40;;;7.50;99.90;;;;;;6136476;23;20185;-82
2022/11/12 00:14:02;;;;;;;23.58;17.42;;;7.50;99.90;;;;;;6139659;23;20206;-88
2022/11/12 00:16:31;;;;;;;23.13;16.80;;;7.50;99.90;;;;;;6161556;23;20220;-83
2022/11/12 00:19:01;;;;;;;25.40;18.45;;;7.40;99.90;;;;;;6161450;23;20180;-83
2022/11/12 00:21:30;;;;;;;23.73;18.92;;;7.40;99.90;;;;;;6162133;23;20178;-84
2022/11/12 00:23:57;;;;;;;33.00;20.35;;;7.40;99.90;;;;;;6136480;23;20186;-82
2022/11/12 00:26:24;;;;;;;26.02;18.10;;;7.40;99.90;;;;;;6162011;23;20177;-83
2022/11/12 00:28:50;;;;;;;25.95;18.40;;;7.50;99.90;;;;;;6161138;23;20741;-87
2022/11/12 00:31:17;;;;;;;27.02;18.42;;;7.40;99.90;;;;;;6162234;23;20185;-83
2022/11/12 00:33:44;;;;;;;26.15;18.85;;;7.40;99.90;;;;;;6112355;23;20203;-82
2022/11/12 00:36:11;;;;;;;28.77;18.70;;;7.40;99.90;;;;;;6162610;23;20188;-82
2022/11/12 00:38:38;;;;;;;25.55;16.63;;;7.40;99.90;;;;;;6135730;23;20173;-81
2022/11/12 00:41:05;;;;;;;28.13;17.98;;;7.40;99.90;;;;;;6162668;23;20185;-82
2022/11/12 00:43:32;;;;;;;23.42;17.92;;;7.40;99.90;;;;;;6169653;23;20554;-86
2022/11/12 00:45:59;;;;;;;23.08;16.35;;;7.40;99.90;;;;;;6144969;23;20178;-85
2022/11/12 00:48:25;;;;;;;24.52;16.65;;;7.40;99.90;;;;;;6145152;23;20193;-83
2022/11/12 00:50:59;;;;;;;18.67;15.10;;;7.40;99.90;;;;;;6172391;23;20481;-83
2022/11/12 00:53:26;;;;;;;22.02;16.23;;;7.40;99.90;;;;;;6169490;23;20185;-81
2022/11/12 00:55:59;;;;;;;26.25;18.45;;;7.40;99.90;;;;;;6138379;23;20217;-82
2022/11/12 00:58:29;;;;;;;27.98;18.77;;;7.30;99.90;;;;;;6160266;23;20280;-85
2022/11/12 01:00:56;;;;;;;27.60;16.50;;;7.20;99.90;;;;;;6133865;23;20544;-81
2022/11/12 01:03:26;;;;;;;25.40;18.25;;;7.20;99.90;;;;;;6160510;23;20404;-85
2022/11/12 01:05:53;;;;;;;29.02;18.17;;;7.20;99.90;;;;;;6161558;23;20373;-84
2022/11/12 01:08:19;;;;;;;23.52;16.73;;;7.10;99.90;;;;;;6135744;23;20691;-82
2022/11/12 01:10:46;;;;;;;28.00;17.13;;;7.10;99.90;;;;;;6135696;23;20236;-82
2022/11/12 01:13:13;;;;;;;25.50;17.13;;;7.10;99.90;;;;;;6162274;23;20330;-82
2022/11/12 01:15:41;;;;;;;23.40;16.75;;;7.10;99.90;;;;;;6161877;23;20209;-81
2022/11/12 01:18:08;;;;;;;28.60;19.05;;;7.00;99.90;;;;;;6161844;23;20190;-83
2022/11/12 01:20:37;;;;;;;29.80;18.73;;;6.70;99.90;;;;;;6161922;23;20173;-82
2022/11/12 01:23:05;;;;;;;26.05;18.90;;;6.80;99.90;;;;;;6161915;23;20189;-81
2022/11/12 01:25:32;;;;;;;24.83;17.55;;;6.70;99.90;;;;;;6161720;23;20236;-81
2022/11/12 01:27:59;;;;;;;22.98;17.73;;;6.70;99.90;;;;;;6135575;23;20473;-82
2022/11/12 01:30:26;;;;;;;23.13;18.30;;;6.80;99.90;;;;;;6160465;23;20197;-84
2022/11/12 01:32:52;;;;;;;27.83;18.75;;;6.70;99.90;;;;;;6161533;23;20189;-83
2022/11/12 01:35:19;;;;;;;32.47;19.83;;;6.60;99.90;;;;;;6161230;23;20197;-83
2022/11/12 01:37:46;;;;;;;26.95;19.33;;;6.40;99.90;;;;;;6161511;23;20177;-84
2022/11/12 01:40:13;;;;;;;30.20;19.40;;;6.50;99.90;;;;;;6161290;23;20189;-84
2022/11/12 01:42:40;;;;;;;33.75;19.80;;;6.50;99.90;;;;;;6161215;23;20248;-82
2022/11/12 01:45:14;;;;;;;27.05;18.80;;;6.70;99.90;;;;;;6161481;23;20186;-81
2022/11/12 01:47:43;;;;;;;25.95;18.95;;;6.50;99.90;;;;;;6162485;23;20189;-81
2022/11/12 01:50:20;;;;;;;30.48;19.73;;;6.50;99.90;;;;;;6161744;23;20397;-86
2022/11/12 01:52:51;;;;;;;28.27;17.90;;;6.60;99.90;;;;;;6169662;23;20180;-82
2022/11/12 01:55:22;;;;;;;27.30;16.10;;;6.50;99.90;;;;;;6137644;23;20237;-84
2022/11/12 01:58:13;;;;;;;21.23;15.70;;;6.60;99.90;;;;;;6162425;23;20186;-83
2022/11/12 02:00:40;;;;;;;26.92;16.48;;;6.60;99.90;;;;;;6163299;23;20213;-82
2022/11/12 02:03:20;;;;;;;25.05;17.85;;;6.60;99.90;;;;;;6166268;23;20493;-84
2022/11/12 02:05:52;;;;;;;25.55;19.55;;;6.60;99.90;;;;;;6162684;23;20221;-84
2022/11/12 02:08:20;;;;;;;27.48;19.33;;;6.50;99.90;;;;;;6161798;23;20221;-83
2022/11/12 02:10:49;;;;;;;28.98;18.75;;;6.60;99.90;;;;;;6161700;23;20252;-85
2022/11/12 02:16:06;;;;;;;26.90;17.48;;;6.50;99.90;;;;;;6163280;23;20202;-84
2022/11/12 02:18:33;;;;;;;26.42;18.90;;;6.50;99.90;;;;;;6163701;23;20354;-82
2022/11/12 02:21:07;;;;;;;25.73;15.75;;;6.50;99.90;;;;;;6165007;23;20311;-83
2022/11/12 02:23:36;;;;;;;20.33;14.65;;;6.50;99.90;;;;;;6167605;23;20177;-83
2022/11/12 02:26:03;;;;;;;19.20;14.70;;;6.50;99.90;;;;;;6142470;23;20189;-84
2022/11/12 02:28:31;;;;;;;21.77;15.82;;;6.50;99.90;;;;;;6164500;23;20177;-83
2022/11/12 02:30:58;;;;;;;18.27;12.85;;;6.50;99.90;;;;;;6164292;23;20441;-83
2022/11/12 02:33:25;;;;;;;20.58;13.25;;;6.50;99.90;;;;;;6164540;23;20240;-87
2022/11/12 02:35:54;;;;;;;15.88;12.88;;;6.60;99.90;;;;;;6164979;23;20208;-82
2022/11/12 02:38:21;;;;;;;19.83;14.25;;;6.60;99.90;;;;;;6140928;23;20217;-81
2022/11/12 02:40:47;;;;;;;18.35;12.35;;;6.60;99.90;;;;;;6144640;23;20185;-84
2022/11/12 02:43:15;;;;;;;21.90;13.65;;;6.60;99.90;;;;;;6165053;23;20213;-81
2022/11/12 02:45:42;;;;;;;18.63;11.70;;;6.60;99.90;;;;;;6167550;23;20236;-81
2022/11/12 02:48:09;;;;;;;14.32;11.32;;;6.70;99.90;;;;;;6142253;23;20536;-81
2022/11/12 02:50:43;;;;;;;17.95;12.82;;;6.60;99.90;;;;;;6166943;23;20330;-81
2022/11/12 02:53:10;;;;;;;13.65;11.68;;;6.70;99.90;;;;;;6139110;23;20390;-84
2022/11/12 02:55:39;;;;;;;21.42;13.45;;;6.70;99.90;;;;;;6138645;23;20242;-82
2022/11/12 02:58:05;;;;;;;19.27;11.27;;;6.70;99.90;;;;;;6169772;23;20177;-80
2022/11/12 03:00:32;;;;;;;13.98;11.88;;;6.60;99.90;;;;;;6136160;23;20185;-81
2022/11/12 03:03:01;;;;;;;14.25;11.80;;;6.60;99.90;;;;;;6161117;23;20204;-83
2022/11/12 03:05:31;;;;;;;21.42;13.02;;;6.60;99.90;;;;;;6162802;23;20217;-83
2022/11/12 03:08:00;;;;;;;16.52;12.35;;;6.50;99.90;;;;;;6165105;23;20177;-80
2022/11/12 03:10:28;;;;;;;22.77;13.10;;;6.60;99.90;;;;;;6172080;23;20169;-87
2022/11/12 03:12:57;;;;;;;19.15;13.55;;;6.50;99.90;;;;;;6181850;23;20178;-88
2022/11/12 03:15:24;;;;;;;14.20;10.45;;;6.50;99.90;;;;;;6158453;23;20197;-88
2022/11/12 03:17:51;;;;;;;16.90;11.70;;;6.50;99.90;;;;;;6171919;23;20189;-80
2022/11/12 03:20:18;;;;;;;15.73;11.05;;;6.50;99.90;;;;;;6164410;23;20186;-82
2022/11/12 03:23:18;;;;;;;13.85;10.55;;;6.60;99.90;;;;;;6162957;23;20177;-81
2022/11/12 03:25:45;;;;;;;17.77;11.05;;;6.50;99.90;;;;;;6083511;23;20193;-81
2022/11/12 03:28:15;;;;;;;13.40;9.65;;;6.50;99.90;;;;;;6163664;23;20172;-87
2022/11/12 03:30:43;;;;;;;18.35;10.65;;;6.50;99.90;;;;;;6163058;23;20185;-82
2022/11/12 03:33:13;;;;;;;13.20;8.90;;;6.50;99.90;;;;;;6137067;23;20185;-86
2022/11/12 03:35:40;;;;;;;13.32;10.10;;;6.40;99.90;;;;;;6161387;23;20260;-81
2022/11/12 03:38:08;;;;;;;17.92;12.85;;;6.50;99.90;;;;;;6162293;23;20181;-80
2022/11/12 03:40:37;;;;;;;15.45;12.00;;;6.50;99.90;;;;;;6161804;23;20186;-82
2022/11/12 03:43:04;;;;;;;16.73;10.95;;;6.40;99.90;;;;;;6162095;23;20414;-80
2022/11/12 03:45:32;;;;;;;20.98;13.10;;;6.40;99.90;;;;;;6161540;23;20193;-82
2022/11/12 03:48:00;;;;;;;15.10;11.30;;;6.40;99.90;;;;;;6160632;23;20186;-83
2022/11/12 03:50:28;;;;;;;14.77;12.38;;;6.30;99.90;;;;;;6161755;23;20182;-83
2022/11/12 03:52:58;;;;;;;14.73;10.80;;;6.20;99.90;;;;;;6161895;23;20190;-86
2022/11/12 03:55:28;;;;;;;19.08;12.07;;;6.20;99.90;;;;;;6136624;23;20334;-82
2022/11/12 03:57:56;;;;;;;15.15;10.98;;;6.30;99.90;;;;;;6162021;23;20185;-81
2022/11/12 04:00:25;;;;;;;15.75;10.93;;;6.30;99.90;;;;;;6162956;23;20174;-82
2022/11/12 04:02:53;;;;;;;15.27;11.43;;;6.20;99.90;;;;;;6161661;23;20369;-80
2022/11/12 04:11:01;;;;;;;16.08;11.40;;;6.20;99.90;;;;;;6169108;23;20487;-88
2022/11/12 04:13:29;;;;;;;19.52;10.55;;;6.10;99.90;;;;;;6178700;23;20277;-87
2022/11/12 04:21:50;;;;;;;14.68;11.23;;;6.10;99.90;;;;;;6168988;23;20174;-81
2022/11/12 04:27:24;;;;;;;20.83;12.50;;;5.90;99.90;;;;;;6162353;23;20170;-83
2022/11/12 04:32:47;;;;;;;15.77;11.02;;;5.90;99.90;;;;;;6161945;23;20208;-81
2022/11/12 04:35:14;;;;;;;14.55;10.90;;;5.70;99.90;;;;;;6161807;23;20193;-82
2022/11/12 04:37:44;;;;;;;14.93;10.32;;;5.70;99.90;;;;;;6161944;23;20178;-82
2022/11/12 04:45:52;;;;;;;15.18;9.80;;;5.70;99.90;;;;;;6162363;23;20212;-87
2022/11/12 04:48:20;;;;;;;16.98;10.95;;;5.80;99.90;;;;;;6135557;23;20503;-81
2022/11/12 04:50:52;;;;;;;16.30;11.20;;;5.70;99.90;;;;;;6163573;23;20388;-82
2022/11/12 04:53:20;;;;;;;13.50;10.15;;;5.70;99.90;;;;;;6162782;23;20221;-82
2022/11/12 04:55:50;;;;;;;23.50;12.20;;;5.70;99.90;;;;;;6135462;23;20268;-81
2022/11/12 04:58:20;;;;;;;12.68;10.85;;;5.70;99.90;;;;;;6135350;23;20193;-83
2022/11/12 05:00:51;;;;;;;18.73;10.43;;;5.80;99.90;;;;;;6165852;23;20169;-82
2022/11/12 05:03:18;;;;;;;14.45;11.15;;;5.70;99.90;;;;;;6136584;23;20189;-81
2022/11/12 05:05:45;;;;;;;15.63;11.23;;;5.70;99.90;;;;;;6135214;23;20181;-86
2022/11/12 05:08:12;;;;;;;14.95;11.57;;;5.60;99.90;;;;;;6137481;23;20204;-81
2022/11/12 05:10:39;;;;;;;13.70;9.90;;;5.70;99.90;;;;;;6163530;23;20177;-81
2022/11/12 05:13:06;;;;;;;17.13;11.15;;;5.70;99.90;;;;;;6135807;23;20233;-84
2022/11/12 05:15:33;;;;;;;13.13;10.63;;;5.60;99.90;;;;;;6160781;23;20197;-81
2022/11/12 05:18:00;;;;;;;14.32;10.57;;;5.30;99.90;;;;;;6161581;23;20251;-81
2022/11/12 05:20:27;;;;;;;13.48;10.68;;;5.00;99.90;;;;;;6160865;23;20189;-82
2022/11/12 05:22:54;;;;;;;19.17;11.65;;;5.30;99.90;;;;;;6135807;23;20252;-83
2022/11/12 05:25:35;;;;;;;17.40;12.60;;;5.30;99.90;;;;;;6161313;23;20224;-80
2022/11/12 05:28:02;;;;;;;16.00;12.13;;;5.40;99.90;;;;;;6160956;23;20223;-82
2022/11/12 05:30:32;;;;;;;17.85;12.30;;;5.30;99.90;;;;;;6160904;23;20683;-85
2022/11/12 05:32:59;;;;;;;16.98;11.75;;;5.30;99.90;;;;;;6160906;23;20478;-82
2022/11/12 05:35:26;;;;;;;16.40;11.18;;;5.20;99.90;;;;;;6161123;23;20201;-83
2022/11/12 05:37:53;;;;;;;18.30;11.07;;;5.30;99.90;;;;;;6160865;23;20236;-86
2022/11/12 05:40:20;;;;;;;15.70;11.55;;;5.20;99.90;;;;;;6139547;23;20212;-81
2022/11/12 05:42:47;;;;;;;18.05;11.77;;;5.40;99.90;;;;;;6163859;23;20229;-84
2022/11/12 05:45:14;;;;;;;19.27;12.55;;;5.30;99.90;;;;;;6162196;23;20178;-82
2022/11/12 05:47:41;;;;;;;18.67;12.23;;;5.30;99.90;;;;;;6161813;23;20209;-84
2022/11/12 05:50:07;;;;;;;17.60;12.27;;;5.40;99.90;;;;;;6163314;23;20177;-86
2022/11/12 05:52:35;;;;;;;27.50;14.07;;;5.30;99.90;;;;;;6164695;23;20325;-81
2022/11/12 05:55:03;;;;;;;19.30;11.85;;;5.40;99.90;;;;;;6166181;23;20225;-83
2022/11/12 05:57:30;;;;;;;23.25;14.82;;;5.40;99.90;;;;;;6166146;23;20416;-82
2022/11/12 05:59:57;;;;;;;31.50;17.13;;;5.30;99.90;;;;;;6165437;23;20242;-81
2022/11/12 06:02:26;;;;;;;40.70;21.20;;;5.40;99.90;;;;;;6165998;23;20267;-81
2022/11/12 06:04:54;;;;;;;51.85;23.50;;;5.40;99.90;;;;;;6165817;23;20177;-80
2022/11/12 06:07:21;;;;;;;56.78;23.98;;;5.40;99.90;;;;;;6166684;23;20253;-82
2022/11/12 06:09:48;;;;;;;36.85;21.13;;;5.50;99.90;;;;;;6167340;23;20212;-82
2022/11/12 06:12:16;;;;;;;34.45;16.83;;;5.50;99.90;;;;;;6136293;23;20185;-81
2022/11/12 06:14:43;;;;;;;24.95;17.05;;;5.50;99.90;;;;;;6135711;23;20232;-81
2022/11/12 06:17:10;;;;;;;24.55;13.40;;;5.60;99.90;;;;;;6161063;23;20587;-84
2022/11/12 06:19:37;;;;;;;21.02;13.68;;;5.40;99.90;;;;;;6134864;23;20434;-81
2022/11/12 06:22:04;;;;;;;21.85;14.90;;;5.50;99.90;;;;;;6161746;23;20351;-81
2022/11/12 06:24:31;;;;;;;20.33;12.30;;;5.50;99.90;;;;;;6161374;23;20177;-83
2022/11/12 06:27:01;;;;;;;15.93;11.90;;;5.60;99.90;;;;;;6166757;23;20169;-82
2022/11/12 06:29:29;;;;;;;16.83;9.98;;;5.60;99.90;;;;;;6166645;23;20170;-82
2022/11/12 06:31:56;;;;;;;19.08;11.48;;;5.70;99.90;;;;;;6167996;23;20170;-90
2022/11/12 06:34:23;;;;;;;19.38;12.50;;;5.80;99.90;;;;;;6170114;23;20189;-82
2022/11/12 06:36:50;;;;;;;23.73;13.80;;;6.00;99.90;;;;;;6142039;23;20198;-83
2022/11/12 06:39:17;;;;;;;15.35;10.48;;;5.80;99.90;;;;;;6169128;23;20168;-83
2022/11/12 06:41:44;;;;;;;16.10;11.32;;;6.00;99.90;;;;;;6165542;23;20178;-82
2022/11/12 06:44:11;;;;;;;15.02;10.73;;;6.00;99.90;;;;;;6138502;23;20241;-81
2022/11/12 06:46:41;;;;;;;15.43;11.43;;;6.00;99.90;;;;;;6164936;23;20176;-81
2022/11/12 06:49:08;;;;;;;11.27;9.30;;;6.10;99.90;;;;;;6140870;23;20178;-82
2022/11/12 06:51:35;;;;;;;13.10;10.30;;;6.20;99.90;;;;;;6167032;23;20166;-82
2022/11/12 06:54:02;;;;;;;17.27;10.95;;;6.30;99.90;;;;;;6166364;23;20181;-82
2022/11/12 06:56:29;;;;;;;12.70;9.20;;;6.40;99.90;;;;;;6096671;23;1614473;-83
2022/11/12 06:58:56;;;;;;;12.80;8.93;;;6.40;99.90;;;;;;6139529;23;20233;-83
2022/11/12 07:01:23;;;;;;;11.13;8.60;;;6.50;99.90;;;;;;6163649;23;20224;-81
2022/11/12 07:03:52;;;;;;;13.25;8.38;;;6.60;99.90;;;;;;6161716;23;20290;-84
2022/11/12 07:06:19;;;;;;;10.65;8.50;;;6.70;99.90;;;;;;6161523;23;20190;-82
2022/11/12 07:08:50;;;;;;;10.80;8.18;;;6.70;99.90;;;;;;6160783;23;20228;-83
2022/11/12 07:11:18;;;;;;;13.60;8.60;;;6.80;99.90;;;;;;6141843;23;20177;-88
2022/11/12 07:13:47;;;;;;;8.88;7.82;;;6.90;99.90;;;;;;6152832;23;20167;-87
2022/11/12 07:16:17;;;;;;;8.60;6.50;;;7.10;99.90;;;;;;6179862;23;20221;-88
2022/11/12 07:18:46;;;;;;;11.40;7.93;;;7.30;99.90;;;;;;6175708;23;20429;-81
2022/11/12 07:21:18;;;;;;;11.02;7.47;;;7.40;99.90;;;;;;6164212;23;20233;-82
2022/11/12 07:23:46;;;;;;;10.75;7.78;;;7.70;99.90;;;;;;6164234;23;20177;-81
2022/11/12 07:26:19;;;;;;;9.27;7.95;;;7.90;99.90;;;;;;6163732;23;20273;-80
2022/11/12 07:28:49;;;;;;;16.88;7.10;;;8.30;99.90;;;;;;6160543;23;20174;-84
2022/11/12 07:31:18;;;;;;;14.20;7.45;;;8.50;99.90;;;;;;6137179;23;20192;-81
2022/11/12 07:33:47;;;;;;;10.80;6.68;;;9.10;99.90;;;;;;6161507;23;20185;-85
2022/11/12 07:36:19;;;;;;;8.13;5.60;;;9.40;99.90;;;;;;6135362;23;20567;-84
2022/11/12 07:38:52;;;;;;;13.82;5.75;;;9.80;99.90;;;;;;6161669;23;20217;-81
2022/11/12 07:41:21;;;;;;;8.48;7.18;;;10.30;99.90;;;;;;6161772;23;20402;-84
2022/11/12 07:43:51;;;;;;;9.38;6.13;;;10.70;99.90;;;;;;6161737;23;20616;-82
2022/11/12 07:46:24;;;;;;;12.70;7.03;;;11.10;99.90;;;;;;6162682;23;20181;-82
2022/11/12 07:48:52;;;;;;;13.20;7.90;;;11.40;99.90;;;;;;6135789;23;20173;-84
2022/11/12 07:51:24;;;;;;;13.48;8.93;;;11.50;99.90;;;;;;6161864;23;20759;-82
2022/11/12 07:53:56;;;;;;;14.68;8.90;;;11.40;99.90;;;;;;6161783;23;20188;-83
2022/11/12 07:56:26;;;;;;;12.45;8.18;;;11.20;99.90;;;;;;6162982;23;20273;-83
2022/11/12 07:58:54;;;;;;;9.63;7.47;;;10.90;99.90;;;;;;6164768;23;20162;-81
2022/11/12 08:01:35;;;;;;;7.80;6.90;;;10.40;99.90;;;;;;6165300;23;20224;-82
2022/11/12 08:04:04;;;;;;;12.48;7.70;;;10.30;99.90;;;;;;6139262;23;20243;-82
2022/11/12 08:06:32;;;;;;;14.05;9.10;;;10.00;99.90;;;;;;6164496;23;20608;-80
2022/11/12 08:09:01;;;;;;;16.02;7.47;;;9.90;99.90;;;;;;6162619;23;20181;-82
2022/11/12 08:11:28;;;;;;;11.40;7.80;;;9.90;99.90;;;;;;6136794;23;20385;-81
2022/11/12 08:13:55;;;;;;;13.48;7.63;;;9.90;99.90;;;;;;6162181;23;20178;-83
2022/11/12 08:16:22;;;;;;;14.23;9.15;;;9.90;99.90;;;;;;6161089;23;20209;-81
2022/11/12 08:18:49;;;;;;;9.30;7.43;;;10.00;99.90;;;;;;6135197;23;20186;-83
2022/11/12 08:21:17;;;;;;;10.63;6.80;;;9.90;99.90;;;;;;6135773;23;20232;-83
2022/11/12 08:23:45;;;;;;;9.55;7.55;;;9.80;99.90;;;;;;6160407;23;20182;-82
2022/11/12 08:26:15;;;;;;;14.27;7.35;;;10.20;99.90;;;;;;6162385;23;20181;-82
2022/11/12 08:28:49;;;;;;;8.52;7.13;;;10.30;99.90;;;;;;6161501;23;20185;-85
2022/11/12 08:31:19;;;;;;;9.50;5.90;;;10.70;99.90;;;;;;6160688;23;20176;-83
2022/11/12 08:33:48;;;;;;;9.98;6.75;;;11.30;99.90;;;;;;6161338;23;20173;-80
2022/11/12 08:36:19;;;;;;;7.90;5.72;;;12.10;99.90;;;;;;6161195;23;20210;-80
2022/11/12 08:38:46;;;;;;;8.00;6.53;;;12.60;99.90;;;;;;6161220;23;20168;-87
2022/11/12 08:41:16;;;;;;;9.63;7.07;;;13.10;99.90;;;;;;6162456;23;20372;-83
2022/11/12 08:43:46;;;;;;;9.43;5.93;;;13.40;99.90;;;;;;6136697;23;20178;-83
2022/11/12 08:46:13;;;;;;;6.88;6.18;;;13.90;99.90;;;;;;6136184;23;20224;-84
2022/11/12 08:48:40;;;;;;;7.18;5.03;;;13.80;99.90;;;;;;6161983;23;20185;-81
2022/11/12 08:51:07;;;;;;;5.90;5.13;;;13.80;99.90;;;;;;6135344;23;20220;-83
2022/11/12 08:53:36;;;;;;;7.18;4.80;;;13.20;99.90;;;;;;6161818;23;20208;-81
2022/11/12 08:56:15;;;;;;;7.68;5.72;;;12.90;99.90;;;;;;6135236;23;20204;-81
2022/11/12 08:58:42;;;;;;;9.98;6.63;;;12.30;99.90;;;;;;6136287;23;20165;-85
2022/11/12 09:01:10;;;;;;;9.13;7.05;;;12.20;99.90;;;;;;6162212;23;20224;-81
2022/11/12 09:03:37;;;;;;;12.18;6.35;;;11.90;99.90;;;;;;6162211;23;20201;-80
2022/11/12 09:06:05;;;;;;;7.60;5.50;;;11.80;99.90;;;;;;6163056;23;20204;-80
2022/11/12 09:08:33;;;;;;;10.65;6.15;;;11.60;99.90;;;;;;6161516;23;20178;-81
2022/11/12 09:11:00;;;;;;;6.40;5.03;;;11.40;99.90;;;;;;6161024;23;20224;-86
2022/11/12 09:13:27;;;;;;;6.18;5.55;;;11.30;99.90;;;;;;6162036;23;20185;-83
2022/11/12 09:16:00;;;;;;;6.47;5.15;;;10.70;99.90;;;;;;6164096;23;20178;-81
2022/11/12 09:18:27;;;;;;;8.23;5.65;;;10.60;99.90;;;;;;6162661;23;20209;-84
2022/11/12 09:21:02;;;;;;;8.50;4.78;;;10.60;99.90;;;;;;6162553;23;20217;-82
2022/11/12 09:23:30;;;;;;;4.97;3.90;;;10.60;99.90;;;;;;6163605;23;20209;-82
2022/11/12 09:25:57;;;;;;;6.13;4.35;;;10.50;99.90;;;;;;6163936;23;20212;-80
2022/11/12 09:28:24;;;;;;;8.85;5.40;;;10.60;99.90;;;;;;6138646;23;20185;-81
2022/11/12 09:30:53;;;;;;;7.28;6.22;;;10.60;99.90;;;;;;6164665;23;20482;-80
2022/11/12 09:33:26;;;;;;;4.95;4.45;;;10.70;99.90;;;;;;6139207;23;20562;-86
2022/11/12 09:35:54;;;;;;;6.32;4.25;;;10.70;99.90;;;;;;6163939;23;20201;-81
2022/11/12 09:38:22;;;;;;;10.00;4.88;;;10.80;99.90;;;;;;6141609;23;20189;-83
2022/11/12 09:40:52;;;;;;;6.25;5.68;;;11.00;99.90;;;;;;6166544;23;20182;-79
2022/11/12 09:43:30;;;;;;;12.57;6.80;;;11.10;99.90;;;;;;6165386;23;20185;-80
2022/11/12 09:46:05;;;;;;;5.25;4.55;;;11.10;99.90;;;;;;6163662;23;20417;-80
2022/11/12 09:49:16;;;;;;;6.13;5.10;;;11.10;99.90;;;;;;6160614;23;20212;-83
2022/11/12 09:51:55;;;;;;;6.88;4.78;;;11.00;99.90;;;;;;6160202;23;20170;-80
2022/11/12 09:54:28;;;;;;;48.22;6.95;;;11.10;99.90;;;;;;6133975;23;20213;-82
2022/11/12 09:56:55;;;;;;;8.80;6.10;;;11.10;99.90;;;;;;6156956;23;20256;-80
2022/11/12 09:59:28;;;;;;;9.70;4.50;;;11.00;99.90;;;;;;6159436;23;20478;-85
2022/11/12 10:02:18;;;;;;;5.88;4.70;;;11.20;99.90;;;;;;6162016;23;20215;-79
2022/11/12 10:05:06;;;;;;;7.93;5.00;;;11.10;99.90;;;;;;6160486;23;20209;-79
2022/11/12 10:08:00;;;;;;;8.55;5.60;;;11.20;99.90;;;;;;6134134;23;20166;-82
2022/11/12 10:10:59;;;;;;;8.05;4.90;;;11.30;99.90;;;;;;6161291;23;20166;-81
2022/11/12 10:14:08;;;;;;;8.13;5.32;;;11.40;99.90;;;;;;6032605;23;20181;-79
2022/11/12 10:17:00;;;;;;;5.55;5.05;;;11.40;99.90;;;;;;6091281;23;20373;-80
2022/11/12 10:20:18;;;;;;;7.15;5.10;;;11.50;99.90;;;;;;6161246;23;20166;-83
2022/11/12 10:23:03;;;;;;;11.27;6.22;;;11.60;99.90;;;;;;6079704;23;20252;-80
2022/11/12 10:25:31;;;;;;;8.55;6.22;;;11.90;99.90;;;;;;6161328;23;20213;-81
2022/11/12 10:28:06;;;;;;;7.45;5.97;;;12.10;99.90;;;;;;6159953;23;20421;-82
2022/11/12 10:30:35;;;;;;;16.83;6.07;;;12.10;99.90;;;;;;6159597;23;20185;-80
2022/11/12 10:33:02;;;;;;;7.90;5.65;;;12.00;99.90;;;;;;6159523;23;20178;-82
2022/11/12 10:35:29;;;;;;;9.43;5.85;;;11.90;99.90;;;;;;6160988;23;20186;-82
2022/11/12 10:38:01;;;;;;;13.88;6.30;;;11.90;99.90;;;;;;6160561;23;20205;-81
2022/11/12 10:40:35;;;;;;;10.55;6.30;;;12.00;99.90;;;;;;6160828;23;20170;-81
2022/11/12 10:43:04;;;;;;;6.57;4.95;;;12.00;99.90;;;;;;6159965;23;20169;-85
2022/11/12 10:45:32;;;;;;;8.32;6.35;;;12.20;99.90;;;;;;6160774;23;20255;-82
2022/11/12 10:48:01;;;;;;;6.32;5.15;;;12.20;99.90;;;;;;6161056;23;20195;-85
2022/11/12 10:50:41;;;;;;;10.20;5.80;;;12.40;99.90;;;;;;6134848;23;20513;-83
2022/11/12 10:53:11;;;;;;;7.25;5.15;;;12.30;99.90;;;;;;6162595;23;20169;-80
2022/11/12 10:55:55;;;;;;;14.90;5.78;;;12.20;99.90;;;;;;6159540;23;20208;-79
2022/11/12 10:58:22;;;;;;;7.03;5.78;;;12.20;99.90;;;;;;6162471;23;20217;-82
2022/11/12 11:00:57;;;;;;;8.95;6.53;;;12.00;99.90;;;;;;6160489;23;20185;-82
2022/11/12 11:03:34;;;;;;;6.43;4.97;;;12.00;99.90;;;;;;6159948;23;20212;-83
2022/11/12 11:06:16;;;;;;;9.32;4.95;;;12.00;99.90;;;;;;6161107;23;20170;-83
2022/11/12 11:08:49;;;;;;;12.73;5.63;;;12.00;99.90;;;;;;6161314;23;20165;-81
2022/11/12 11:11:16;;;;;;;5.35;4.32;;;12.20;99.90;;;;;;6161908;23;20489;-81
2022/11/12 11:13:47;;;;;;;9.45;5.35;;;12.30;99.90;;;;;;6163704;23;20170;-86
2022/11/12 11:16:29;;;;;;;5.50;4.78;;;12.40;99.90;;;;;;6174402;23;20170;-86
2022/11/12 11:19:02;;;;;;;9.38;4.75;;;12.50;99.90;;;;;;6175019;23;20169;-88
2022/11/12 11:21:40;;;;;;;14.90;6.47;;;12.50;99.90;;;;;;6177279;23;20173;-87
2022/11/12 11:24:41;;;;;;;10.68;5.90;;;12.50;99.90;;;;;;6172226;23;20445;-79
2022/11/12 11:27:36;;;;;;;7.07;5.35;;;12.60;99.90;;;;;;6162122;23;20181;-81
2022/11/12 11:30:12;;;;;;;9.95;4.88;;;12.70;99.90;;;;;;6162350;23;20162;-82
2022/11/12 11:33:16;;;;;;;9.00;5.80;;;12.60;99.90;;;;;;6161728;23;20197;-80
2022/11/12 11:36:04;;;;;;;5.20;3.42;;;12.50;99.90;;;;;;6160803;23;20236;-80
2022/11/12 11:38:40;;;;;;;4.93;3.53;;;12.50;99.90;;;;;;6159516;23;20217;-81
2022/11/12 11:41:07;;;;;;;7.18;5.13;;;12.50;99.90;;;;;;6160803;23;20177;-80
2022/11/12 11:43:57;;;;;;;8.57;3.95;;;12.70;99.90;;;;;;6163316;23;20391;-80
2022/11/12 11:46:38;;;;;;;9.18;4.25;;;12.80;99.90;;;;;;6137982;23;20162;-81
2022/11/12 11:49:36;;;;;;;6.47;4.63;;;12.80;99.90;;;;;;6160198;23;20376;-86
2022/11/12 11:52:45;;;;;;;7.97;4.60;;;12.70;99.90;;;;;;6160284;23;20197;-83
2022/11/12 11:55:21;;;;;;;5.63;3.65;;;12.70;99.90;;;;;;6089785;23;20488;-81
2022/11/12 11:58:00;;;;;;;5.18;4.32;;;12.60;99.90;;;;;;6160618;23;20621;-82
2022/11/12 12:00:45;;;;;;;4.65;4.10;;;12.70;99.90;;;;;;6160775;23;20188;-80
2022/11/12 12:03:18;;;;;;;5.45;4.65;;;12.60;99.90;;;;;;6134979;23;20216;-81
2022/11/12 12:06:00;;;;;;;6.97;4.32;;;12.60;99.90;;;;;;6135839;23;20177;-80
2022/11/12 12:08:55;;;;;;;5.07;4.10;;;12.60;99.90;;;;;;6164275;23;20155;-85
2022/11/12 12:11:37;;;;;;;6.80;4.75;;;12.60;99.90;;;;;;6172712;23;20154;-87
2022/11/12 12:14:27;;;;;;;9.07;5.55;;;12.60;99.90;;;;;;6176672;23;20180;-84
2022/11/12 12:17:03;;;;;;;8.90;6.13;;;12.60;99.90;;;;;;6176216;23;20227;-86
2022/11/12 12:19:49;;;;;;;6.43;4.93;;;12.60;99.90;;;;;;6141875;23;20193;-85
2022/11/12 12:22:25;;;;;;;7.60;4.25;;;12.70;99.90;;;;;;6161505;23;20173;-85
2022/11/12 12:24:57;;;;;;;6.15;4.57;;;12.60;99.90;;;;;;6135740;23;20172;-84
2022/11/12 12:27:33;;;;;;;7.95;4.38;;;12.70;99.90;;;;;;6160123;23;20172;-85
2022/11/12 12:30:13;;;;;;;6.13;3.63;;;12.70;99.90;;;;;;6134896;23;20184;-84
2022/11/12 12:32:47;;;;;;;6.43;4.40;;;12.70;99.90;;;;;;6135681;23;20210;-84
2022/11/12 12:35:31;;;;;;;4.75;3.90;;;12.70;99.90;;;;;;6162745;23;20209;-82
2022/11/12 12:38:14;;;;;;;5.85;3.90;;;12.60;99.90;;;;;;6161940;23;20196;-83
2022/11/12 12:41:09;;;;;;;6.00;3.92;;;12.60;99.90;;;;;;6162222;23;20166;-85
2022/11/12 12:43:44;;;;;;;5.88;3.78;;;12.60;99.90;;;;;;6134199;23;20490;-83
2022/11/12 12:46:14;;;;;;;8.65;3.97;;;12.60;99.90;;;;;;6136194;23;20451;-86
2022/11/12 12:48:44;;;;;;;5.80;3.80;;;12.60;99.90;;;;;;6139499;23;20182;-86
2022/11/12 12:51:12;;;;;;;9.00;4.85;;;12.60;99.90;;;;;;6138859;23;20174;-83
2022/11/12 12:53:39;;;;;;;5.65;3.88;;;12.50;99.90;;;;;;6163598;23;20186;-83
2022/11/12 12:56:29;;;;;;;6.43;3.83;;;12.40;99.90;;;;;;6161510;23;20220;-82
2022/11/12 12:59:02;;;;;;;5.82;3.55;;;12.50;99.90;;;;;;6160584;23;20182;-83
2022/11/12 13:01:31;;;;;;;4.25;3.83;;;12.50;99.90;;;;;;6135843;23;20168;-84
2022/11/12 13:04:07;;;;;;;6.07;4.13;;;12.50;99.90;;;;;;6136578;23;20186;-83
2022/11/12 13:06:38;;;;;;;8.55;4.40;;;12.40;99.90;;;;;;6137681;23;20170;-85
2022/11/12 13:09:11;;;;;;;5.18;4.38;;;12.50;99.90;;;;;;6162400;23;20465;-81
2022/11/12 13:14:32;;;;;;;3.95;3.33;;;12.30;99.90;;;;;;6162893;23;20162;-82
2022/11/12 13:17:12;;;;;;;5.93;3.20;;;12.30;99.90;;;;;;6162764;23;20204;-84
2022/11/12 13:19:56;;;;;;;6.05;3.60;;;12.40;99.90;;;;;;6162359;23;20177;-85
2022/11/12 13:22:33;;;;;;;5.90;3.53;;;12.40;99.90;;;;;;6162996;23;20480;-84
2022/11/12 13:25:23;;;;;;;7.97;4.57;;;12.30;99.90;;;;;;6137605;23;20169;-84
2022/11/12 13:27:53;;;;;;;9.05;4.68;;;12.40;99.90;;;;;;6135507;23;20201;-84
2022/11/12 13:30:23;;;;;;;4.65;4.20;;;12.40;99.90;;;;;;6137323;23;20217;-88
2022/11/12 13:32:50;;;;;;;5.70;3.97;;;12.30;99.90;;;;;;6136718;23;20650;-83
2022/11/12 13:35:20;;;;;;;5.18;3.88;;;12.40;99.90;;;;;;6160964;23;20177;-84